createdAt,value
2022-08-22T00:00:31.456Z,92020.53
2022-08-22T00:02:58.171Z,92031.38
2022-08-22T00:03:07.176Z,92035.69
2022-08-22T00:03:12.196Z,92025.97
2022-08-22T00:03:17.400Z,92015.28
2022-08-22T00:05:45.613Z,92007.72
2022-08-22T00:08:12.879Z,92016.28
2022-08-22T00:10:40.152Z,92022.72
2022-08-22T00:13:07.443Z,92013.97
2022-08-22T00:15:43.206Z,92010.97
2022-08-22T00:18:11.474Z,92011.47
2022-08-22T00:20:38.743Z,92013.16
2022-08-22T00:23:06.019Z,92010.13
2022-08-22T00:25:33.288Z,92006.50
2022-08-22T00:28:00.760Z,92008.00
2022-08-22T00:30:28.199Z,92001.56
2022-08-22T00:32:55.473Z,91998.31
2022-08-22T00:35:22.769Z,91996.22
2022-08-22T00:37:50.059Z,91990.53
2022-08-22T00:40:17.358Z,91992.50
2022-08-22T00:42:44.643Z,91986.22
2022-08-22T00:45:11.925Z,91994.53
2022-08-22T00:47:39.211Z,91992.75
2022-08-22T00:50:06.517Z,91998.09
2022-08-22T00:52:33.784Z,91993.81
2022-08-22T00:55:01.077Z,91995.97
2022-08-22T00:57:28.348Z,91988.94
2022-08-22T00:59:56.820Z,91989.31
2022-08-22T01:02:24.100Z,91993.88
2022-08-22T01:04:51.382Z,91990.94
2022-08-22T01:07:18.672Z,91992.13
2022-08-22T01:09:45.952Z,91993.38
2022-08-22T01:12:13.229Z,91986.06
2022-08-22T01:14:40.524Z,91989.91
2022-08-22T01:17:07.800Z,91980.84
2022-08-22T01:19:35.061Z,91978.25
2022-08-22T01:22:02.356Z,91977.91
2022-08-22T01:24:29.625Z,91980.34
2022-08-22T01:26:56.898Z,91975.84
2022-08-22T01:29:28.367Z,91976.31
2022-08-22T01:31:56.141Z,91976.16
2022-08-22T01:34:25.405Z,91971.19
2022-08-22T01:36:52.685Z,91976.81
2022-08-22T01:39:19.969Z,91974.31
2022-08-22T01:41:47.236Z,91973.66
2022-08-22T01:44:14.509Z,91974.06
2022-08-22T01:46:41.792Z,91971.81
2022-08-22T01:49:09.053Z,91974.13
2022-08-22T01:51:36.450Z,91969.56
2022-08-22T01:54:03.725Z,91964.72
2022-08-22T01:56:31.003Z,91967.00
2022-08-22T01:58:58.289Z,91959.22
2022-08-22T02:01:28.922Z,91959.19
2022-08-22T02:03:56.320Z,91955.38
2022-08-22T02:06:23.579Z,91953.84
2022-08-22T02:08:50.842Z,91955.69
2022-08-22T02:11:18.146Z,91961.38
2022-08-22T02:13:45.407Z,91964.81
2022-08-22T02:16:12.683Z,91956.47
2022-08-22T02:18:39.993Z,91956.56
2022-08-22T02:21:07.281Z,91954.38
2022-08-22T02:23:34.557Z,91956.66
2022-08-22T02:26:01.888Z,91950.28
2022-08-22T02:28:29.181Z,91946.28
2022-08-22T02:30:56.444Z,91942.09
2022-08-22T02:33:23.721Z,91935.66
2022-08-22T02:35:51.013Z,91938.56
2022-08-22T02:38:18.285Z,91941.25
2022-08-22T02:40:45.561Z,91945.47
2022-08-22T02:43:12.861Z,91943.03
2022-08-22T02:45:40.132Z,91937.47
2022-08-22T02:48:07.391Z,91935.75
2022-08-22T02:50:34.690Z,91930.22
2022-08-22T02:53:03.939Z,91925.94
2022-08-22T02:55:31.202Z,91918.44
2022-08-22T02:57:58.544Z,91917.47
2022-08-22T03:00:31.973Z,91920.34
2022-08-22T03:03:00.295Z,91911.63
2022-08-22T03:05:29.538Z,91916.66
2022-08-22T03:07:56.814Z,91906.78
2022-08-22T03:10:24.826Z,91909.25
2022-08-22T03:12:56.985Z,91905.41
2022-08-22T03:15:24.759Z,91912.81
2022-08-22T03:17:52.057Z,91909.44
2022-08-22T03:20:19.343Z,91912.81
2022-08-22T03:22:46.638Z,91908.44
2022-08-22T03:25:13.915Z,91900.78
2022-08-22T03:27:41.219Z,91896.94
2022-08-22T03:30:10.443Z,91901.91
2022-08-22T03:32:37.721Z,91893.44
2022-08-22T03:35:05.035Z,91888.50
2022-08-22T03:37:32.311Z,91899.25
2022-08-22T03:39:59.650Z,91890.22
2022-08-22T03:42:27.025Z,91883.63
2022-08-22T03:44:54.305Z,91888.28
2022-08-22T03:47:21.596Z,91886.09
2022-08-22T03:49:49.046Z,91882.50
2022-08-22T03:52:16.396Z,91886.91
2022-08-22T03:54:43.684Z,91889.56
2022-08-22T03:57:10.966Z,91896.66
2022-08-22T03:59:42.561Z,91896.22
2022-08-22T04:02:31.538Z,91906.72
2022-08-22T04:04:57.491Z,91905.31
2022-08-22T04:07:31.699Z,91902.59
2022-08-22T04:09:59.771Z,91900.03
2022-08-22T04:12:27.192Z,91907.84
2022-08-22T04:14:54.462Z,91899.41
2022-08-22T04:17:21.805Z,91903.78
2022-08-22T04:19:49.075Z,91899.41
2022-08-22T04:22:16.356Z,91895.94
2022-08-22T04:24:43.644Z,91905.72
2022-08-22T04:27:15.651Z,91904.53
2022-08-22T04:29:42.941Z,91905.50
2022-08-22T04:32:14.104Z,91908.75
2022-08-22T04:34:41.891Z,91908.13
2022-08-22T04:37:09.164Z,91911.16
2022-08-22T04:39:36.570Z,91904.97
2022-08-22T04:42:29.045Z,91916.84
2022-08-22T04:44:51.152Z,91910.63
2022-08-22T04:47:18.445Z,91907.97
2022-08-22T04:49:45.711Z,91915.72
2022-08-22T04:52:12.994Z,91916.06
2022-08-22T04:54:40.294Z,91914.81
2022-08-22T04:57:07.618Z,91906.41
2022-08-22T04:59:35.025Z,91914.56
2022-08-22T05:02:04.311Z,91925.69
2022-08-22T05:04:31.620Z,91927.28
2022-08-22T05:06:58.925Z,91930.69
2022-08-22T05:09:26.214Z,91928.91
2022-08-22T05:11:53.490Z,91928.56
2022-08-22T05:14:20.763Z,91941.31
2022-08-22T05:16:48.052Z,91959.69
2022-08-22T05:19:16.921Z,91956.81
2022-08-22T05:21:45.231Z,91961.31
2022-08-22T05:24:12.512Z,91964.28
2022-08-22T05:26:39.914Z,91967.50
2022-08-22T05:29:07.277Z,91965.63
2022-08-22T05:31:34.568Z,91965.22
2022-08-22T05:34:01.880Z,91966.44
2022-08-22T05:36:29.170Z,91964.44
2022-08-22T05:38:56.434Z,91969.22
2022-08-22T05:41:23.733Z,91967.97
2022-08-22T05:43:51.013Z,91966.56
2022-08-22T05:46:18.289Z,91960.66
2022-08-22T05:48:45.582Z,91960.94
2022-08-22T05:51:12.959Z,91961.53
2022-08-22T05:53:40.703Z,91968.34
2022-08-22T05:56:08.001Z,91967.47
2022-08-22T05:58:35.280Z,91963.66
2022-08-22T06:01:02.553Z,91963.44
2022-08-22T06:03:29.849Z,91970.03
2022-08-22T06:05:57.145Z,91975.84
2022-08-22T06:08:24.426Z,91969.19
2022-08-22T06:10:51.733Z,91966.31
2022-08-22T06:13:21.987Z,91967.38
2022-08-22T06:15:52.047Z,91964.53
2022-08-22T06:18:19.662Z,91962.88
2022-08-22T06:20:46.934Z,91969.63
2022-08-22T06:23:14.240Z,91968.19
2022-08-22T06:25:41.516Z,91968.13
2022-08-22T06:28:08.808Z,91964.28
2022-08-22T06:30:38.109Z,91963.19
2022-08-22T06:33:05.394Z,91960.94
2022-08-22T06:35:32.666Z,91970.13
2022-08-22T06:38:00.051Z,91966.66
2022-08-22T06:40:27.405Z,91968.75
2022-08-22T06:42:54.725Z,91974.41
2022-08-22T06:45:22.002Z,91983.31
2022-08-22T06:47:51.005Z,91977.47
2022-08-22T06:50:19.486Z,91984.59
2022-08-22T06:52:46.764Z,91988.63
2022-08-22T06:55:14.048Z,91984.13
2022-08-22T06:57:43.319Z,91982.06
2022-08-22T07:00:10.585Z,91984.41
2022-08-22T07:02:37.861Z,91990.47
2022-08-22T07:05:05.184Z,91987.59
2022-08-22T07:07:32.467Z,91991.00
2022-08-22T07:09:59.758Z,91981.63
2022-08-22T07:12:27.074Z,91986.16
2022-08-22T07:14:54.345Z,91982.88
2022-08-22T07:17:21.674Z,91988.81
2022-08-22T07:19:48.957Z,91988.69
2022-08-22T07:22:16.275Z,91994.41
2022-08-22T07:24:43.548Z,91984.22
2022-08-22T07:27:10.847Z,91991.34
2022-08-22T07:29:38.331Z,91993.16
2022-08-22T07:32:05.595Z,91990.13
2022-08-22T07:34:32.870Z,91995.25
2022-08-22T07:37:02.533Z,91991.19
2022-08-22T07:39:29.831Z,91983.94
2022-08-22T07:41:57.143Z,91988.94
2022-08-22T07:44:24.423Z,91998.53
2022-08-22T07:46:52.197Z,91994.84
2022-08-22T07:49:20.372Z,92002.59
2022-08-22T07:51:47.640Z,91999.44
2022-08-22T07:54:14.921Z,92002.75
2022-08-22T07:56:42.224Z,91998.97
2022-08-22T07:59:12.825Z,91997.03
2022-08-22T08:01:40.569Z,92002.59
2022-08-22T08:04:07.897Z,91991.03
2022-08-22T08:06:35.207Z,91986.50
2022-08-22T08:09:02.480Z,91991.84
2022-08-22T08:11:29.753Z,91998.56
2022-08-22T08:13:57.051Z,91986.59
2022-08-22T08:16:24.324Z,91993.59
2022-08-22T08:18:51.607Z,91989.28
2022-08-22T08:21:18.893Z,91999.78
2022-08-22T08:23:46.202Z,91993.34
2022-08-22T08:26:13.460Z,91995.53
2022-08-22T08:28:40.736Z,92005.03
2022-08-22T08:31:08.041Z,91996.28
2022-08-22T08:33:35.324Z,92005.25
2022-08-22T08:36:03.883Z,92007.81
2022-08-22T08:38:31.421Z,92002.75
2022-08-22T08:40:58.687Z,91994.31
2022-08-22T08:43:25.985Z,91999.03
2022-08-22T08:45:53.285Z,91996.03
2022-08-22T08:48:26.351Z,92003.13
2022-08-22T08:50:53.633Z,91992.88
2022-08-22T08:53:22.934Z,92000.03
2022-08-22T08:55:50.203Z,92002.69
2022-08-22T08:58:17.811Z,91993.63
2022-08-22T09:00:45.282Z,91990.50
2022-08-22T09:03:15.472Z,91988.47
2022-08-22T09:05:43.868Z,91983.00
2022-08-22T09:08:11.865Z,91991.34
2022-08-22T09:10:39.276Z,91986.66
2022-08-22T09:15:58.636Z,91992.91
2022-08-22T09:18:31.981Z,91988.34
2022-08-22T09:20:59.248Z,91987.41
2022-08-22T09:23:26.530Z,91991.44
2022-08-22T09:25:54.103Z,91979.06
2022-08-22T09:28:21.362Z,91977.78
2022-08-22T09:30:48.634Z,91979.84
2022-08-22T09:33:21.692Z,91967.25
2022-08-22T09:35:51.909Z,91967.31
2022-08-22T09:38:20.799Z,91970.78
2022-08-22T09:40:16.412Z,91992.63
2022-08-22T09:40:48.083Z,91967.88
2022-08-22T09:43:21.261Z,91970.13
2022-08-22T09:45:50.212Z,91972.16
2022-08-22T09:48:17.553Z,91968.88
2022-08-22T09:50:45.156Z,91970.13
2022-08-22T09:53:13.227Z,91978.72
2022-08-22T09:55:40.492Z,91970.84
2022-08-22T09:58:11.526Z,91974.31
2022-08-22T10:00:38.883Z,91982.31
2022-08-22T10:03:07.770Z,91974.94
2022-08-22T10:05:43.691Z,91980.72
2022-08-22T10:08:11.752Z,91976.16
2022-08-22T10:10:39.029Z,91982.81
2022-08-22T10:13:10.465Z,91987.06
2022-08-22T10:15:38.033Z,91982.16
2022-08-22T10:18:05.340Z,91980.41
2022-08-22T10:20:32.617Z,91994.91
2022-08-22T10:23:01.458Z,91989.63
2022-08-22T10:25:29.133Z,91984.28
2022-08-22T10:27:56.527Z,91982.16
2022-08-22T10:30:23.927Z,91985.94
2022-08-22T10:32:51.218Z,91979.69
2022-08-22T10:35:18.494Z,91988.78
2022-08-22T10:37:46.039Z,91984.09
2022-08-22T10:40:13.946Z,91974.41
2022-08-22T10:42:41.746Z,91978.28
2022-08-22T10:45:09.039Z,91980.31
2022-08-22T10:47:36.333Z,91972.94
2022-08-22T10:50:03.712Z,91969.88
2022-08-22T10:52:37.989Z,91970.91
2022-08-22T10:55:05.665Z,91959.03
2022-08-22T10:57:37.078Z,91970.63
2022-08-22T11:00:06.603Z,91965.44
2022-08-22T11:02:33.944Z,91962.00
2022-08-22T11:05:01.237Z,91966.06
2022-08-22T11:07:28.525Z,91969.69
2022-08-22T11:09:55.797Z,91976.84
2022-08-22T11:12:23.757Z,91974.16
2022-08-22T11:14:55.478Z,91976.59
2022-08-22T11:17:31.008Z,91979.69
2022-08-22T11:19:59.870Z,91970.81
2022-08-22T11:22:27.158Z,91968.97
2022-08-22T11:24:56.741Z,91962.97
2022-08-22T11:27:25.402Z,91955.88
2022-08-22T11:30:05.123Z,91955.91
2022-08-22T11:32:32.391Z,91961.28
2022-08-22T11:34:59.652Z,91958.53
2022-08-22T11:37:42.653Z,91951.56
2022-08-22T11:40:11.869Z,91950.09
2022-08-22T11:42:47.387Z,91961.53
2022-08-22T11:45:26.418Z,91952.44
2022-08-22T11:47:54.589Z,91953.16
2022-08-22T11:50:22.734Z,91950.72
2022-08-22T11:53:04.769Z,91955.31
2022-08-22T11:55:35.162Z,91949.69
2022-08-22T11:58:02.600Z,91948.31
2022-08-22T12:00:29.868Z,91942.53
2022-08-22T12:02:57.163Z,91952.53
2022-08-22T12:05:26.202Z,91950.47
2022-08-22T12:07:53.636Z,91948.06
2022-08-22T12:10:20.928Z,91951.91
2022-08-22T12:12:49.771Z,91943.00
2022-08-22T12:15:17.245Z,91952.53
2022-08-22T12:17:55.300Z,91945.81
2022-08-22T12:20:28.709Z,91941.81
2022-08-22T12:22:55.982Z,91939.00
2022-08-22T12:25:23.265Z,91932.84
2022-08-22T12:27:50.871Z,91942.19
2022-08-22T12:30:22.354Z,91943.34
2022-08-22T12:32:49.636Z,91945.13
2022-08-22T12:35:16.950Z,91937.44
2022-08-22T12:37:52.720Z,91935.31
2022-08-22T12:40:20.483Z,91940.59
2022-08-22T12:42:53.751Z,91942.06
2022-08-22T12:45:21.067Z,91938.09
2022-08-22T12:47:49.455Z,91947.84
2022-08-22T12:50:18.729Z,91937.97
2022-08-22T12:52:46.011Z,91940.66
2022-08-22T12:55:13.305Z,91924.22
2022-08-22T12:57:40.950Z,91922.59
2022-08-22T13:00:08.437Z,91932.88
2022-08-22T13:02:38.984Z,91922.06
2022-08-22T13:05:06.264Z,91917.22
2022-08-22T13:07:34.305Z,91911.56
2022-08-22T13:10:03.171Z,91920.06
2022-08-22T13:12:30.943Z,91918.44
2022-08-22T13:14:58.439Z,91915.66
2022-08-22T13:17:25.899Z,91921.25
2022-08-22T13:19:53.210Z,91917.06
2022-08-22T13:22:20.517Z,91916.19
2022-08-22T13:24:52.414Z,91906.31
2022-08-22T13:27:20.352Z,91906.94
2022-08-22T13:29:47.768Z,91912.59
2022-08-22T13:32:17.007Z,91903.78
2022-08-22T13:34:44.295Z,91901.25
2022-08-22T13:37:11.592Z,91907.16
2022-08-22T13:39:38.906Z,91904.41
2022-08-22T13:42:14.213Z,91906.22
2022-08-22T13:44:41.981Z,91902.47
2022-08-22T13:47:14.815Z,91901.25
2022-08-22T13:49:42.370Z,91899.03
2022-08-22T13:52:28.885Z,91893.59
2022-08-22T13:54:56.979Z,91899.63
2022-08-22T13:57:24.707Z,91894.53
2022-08-22T13:59:57.655Z,91894.09
2022-08-22T14:02:30.980Z,91894.69
2022-08-22T14:05:01.448Z,91894.31
2022-08-22T14:07:31.315Z,91894.34
2022-08-22T14:09:58.626Z,91893.78
2022-08-22T14:12:25.907Z,91890.22
2022-08-22T14:14:53.189Z,91879.31
2022-08-22T14:17:20.866Z,91892.91
2022-08-22T14:19:58.642Z,91892.59
2022-08-22T14:22:32.037Z,91887.38
2022-08-22T14:25:01.881Z,91887.19
2022-08-22T14:27:29.177Z,91878.41
2022-08-22T14:29:56.487Z,91884.38
2022-08-22T14:32:28.557Z,91884.81
2022-08-22T14:34:58.914Z,91889.44
2022-08-22T14:37:26.909Z,91888.69
2022-08-22T14:39:54.306Z,91895.25
2022-08-22T14:42:21.948Z,91896.88
2022-08-22T14:44:49.368Z,91896.31
2022-08-22T14:48:04.933Z,91890.34
2022-08-22T14:50:05.164Z,91897.53
2022-08-22T14:52:32.449Z,91898.25
2022-08-22T14:54:59.731Z,91892.25
2022-08-22T14:57:27.225Z,91889.63
2022-08-22T14:59:54.642Z,91889.31
2022-08-22T15:02:22.059Z,91889.28
2022-08-22T15:04:51.959Z,91886.03
2022-08-22T15:07:19.259Z,91886.00
2022-08-22T15:09:46.561Z,91880.91
2022-08-22T15:12:15.565Z,91882.13
2022-08-22T15:14:42.845Z,91873.47
2022-08-22T15:17:10.962Z,91868.53
2022-08-22T15:19:41.222Z,91874.78
2022-08-22T15:22:08.694Z,91878.84
2022-08-22T15:24:39.024Z,91870.66
2022-08-22T15:27:10.087Z,91872.56
2022-08-22T15:29:38.151Z,91870.66
2022-08-22T15:32:05.475Z,91879.47
2022-08-22T15:34:32.760Z,91865.56
2022-08-22T15:37:00.150Z,91871.50
2022-08-22T15:39:32.445Z,91869.44
2022-08-22T15:42:01.193Z,91865.13
2022-08-22T15:44:32.525Z,91858.53
2022-08-22T15:47:00.449Z,91865.25
2022-08-22T15:49:27.721Z,91863.28
2022-08-22T15:51:54.993Z,91859.25
2022-08-22T15:54:25.237Z,91860.00
2022-08-22T15:56:52.884Z,91861.25
2022-08-22T15:59:20.157Z,91865.56
2022-08-22T16:01:49.795Z,91865.69
2022-08-22T16:04:17.222Z,91866.28
2022-08-22T16:06:44.506Z,91863.78
2022-08-22T16:09:13.983Z,91872.75
2022-08-22T16:11:41.261Z,91866.88
2022-08-22T16:14:08.532Z,91859.44
2022-08-22T16:16:36.381Z,91862.41
2022-08-22T16:19:03.707Z,91868.69
2022-08-22T16:21:30.971Z,91870.63
2022-08-22T16:23:58.277Z,91867.75
2022-08-22T16:26:25.544Z,91866.81
2022-08-22T16:28:59.998Z,91871.06
2022-08-22T16:31:27.290Z,91867.88
2022-08-22T16:33:54.694Z,91857.84
2022-08-22T16:36:23.927Z,91862.00
2022-08-22T16:38:51.207Z,91861.78
2022-08-22T16:41:18.498Z,91865.81
2022-08-22T16:43:54.900Z,91863.94
2022-08-22T16:46:22.527Z,91863.56
2022-08-22T16:48:53.199Z,91863.25
2022-08-22T16:51:20.465Z,91867.00
2022-08-22T16:53:49.552Z,91869.41
2022-08-22T16:56:16.815Z,91862.50
2022-08-22T16:58:57.031Z,91865.09
2022-08-22T17:01:26.332Z,91863.25
2022-08-22T17:04:01.231Z,91866.84
2022-08-22T17:06:28.520Z,91862.91
2022-08-22T17:08:55.818Z,91864.63
2022-08-22T17:11:23.098Z,91866.72
2022-08-22T17:13:50.390Z,91874.63
2022-08-22T17:16:17.693Z,91870.47
2022-08-22T17:18:44.966Z,91871.13
2022-08-22T17:21:12.256Z,91875.00
2022-08-22T17:23:39.527Z,91880.94
2022-08-22T17:26:06.808Z,91882.13
2022-08-22T17:28:34.451Z,91882.00
2022-08-22T17:31:01.768Z,91883.28
2022-08-22T17:33:29.037Z,91885.63
2022-08-22T17:35:56.549Z,91888.06
2022-08-22T17:38:23.841Z,91887.59
2022-08-22T17:40:51.138Z,91884.63
2022-08-22T17:43:18.415Z,91883.84
2022-08-22T17:45:45.728Z,91891.56
2022-08-22T17:48:12.999Z,91896.75
2022-08-22T17:50:40.256Z,91893.44
2022-08-22T17:53:07.545Z,91896.78
2022-08-22T17:55:34.838Z,91892.72
2022-08-22T17:58:03.807Z,91891.34
2022-08-22T18:00:31.096Z,91895.66
2022-08-22T18:02:58.422Z,91890.16
2022-08-22T18:05:25.784Z,91900.72
2022-08-22T18:07:53.077Z,91903.84
2022-08-22T18:10:21.660Z,91909.00
2022-08-22T18:12:49.100Z,91909.38
2022-08-22T18:15:19.111Z,91909.78
2022-08-22T18:17:46.381Z,91919.13
2022-08-22T18:20:13.682Z,91913.75
2022-08-22T18:22:40.957Z,91921.03
2022-08-22T18:25:08.242Z,91908.41
2022-08-22T18:27:35.781Z,91925.28
2022-08-22T18:30:03.097Z,91924.88
2022-08-22T18:32:30.370Z,91926.59
2022-08-22T18:35:02.515Z,91923.69
2022-08-22T18:37:30.203Z,91926.91
2022-08-22T18:39:57.522Z,91924.97
2022-08-22T18:42:24.795Z,91928.53
2022-08-22T18:44:52.101Z,91927.00
2022-08-22T18:47:19.395Z,91934.81
2022-08-22T18:49:46.672Z,91938.13
2022-08-22T18:52:13.939Z,91939.28
2022-08-22T18:54:41.228Z,91935.25
2022-08-22T18:57:08.521Z,91937.06
2022-08-22T18:59:35.804Z,91933.53
2022-08-22T19:02:04.414Z,91934.19
2022-08-22T19:04:31.791Z,91935.03
2022-08-22T19:06:59.069Z,91941.09
2022-08-22T19:09:26.336Z,91943.63
2022-08-22T19:11:53.639Z,91949.34
2022-08-22T19:14:20.904Z,91946.81
2022-08-22T19:16:48.201Z,91951.81
2022-08-22T19:19:17.447Z,91955.69
2022-08-22T19:21:45.027Z,91950.66
2022-08-22T19:24:12.357Z,91957.81
2022-08-22T19:26:39.639Z,91953.34
2022-08-22T19:29:10.658Z,91966.41
2022-08-22T19:31:38.340Z,91963.16
2022-08-22T19:34:05.613Z,91964.53
2022-08-22T19:36:32.889Z,91962.06
2022-08-22T19:39:00.277Z,91964.84
2022-08-22T19:41:28.773Z,91960.31
2022-08-22T19:43:58.441Z,91960.75
2022-08-22T19:46:25.731Z,91959.03
2022-08-22T19:48:53.025Z,91967.75
2022-08-22T19:51:20.331Z,91961.22
2022-08-22T19:53:47.595Z,91965.84
2022-08-22T19:56:14.851Z,91970.00
2022-08-22T19:58:42.259Z,91968.09
2022-08-22T20:01:09.598Z,91972.19
2022-08-22T20:03:36.900Z,91963.31
2022-08-22T20:06:05.449Z,91964.66
2022-08-22T20:08:35.839Z,91966.75
2022-08-22T20:11:03.121Z,91966.47
2022-08-22T20:13:32.456Z,91970.50
2022-08-22T20:15:59.747Z,91966.81
2022-08-22T20:21:16.249Z,91963.50
2022-08-22T20:23:43.525Z,91966.75
2022-08-22T20:26:10.802Z,91973.69
2022-08-22T20:28:38.230Z,91968.25
2022-08-22T20:31:05.541Z,91966.75
2022-08-22T20:33:32.841Z,91964.00
2022-08-22T20:36:00.149Z,91971.13
2022-08-22T20:38:27.425Z,91975.28
2022-08-22T20:40:57.535Z,91962.69
2022-08-22T20:43:28.385Z,91967.97
2022-08-22T20:45:55.832Z,91968.06
2022-08-22T20:48:24.735Z,91968.00
2022-08-22T20:50:51.993Z,91968.38
2022-08-22T20:53:19.260Z,91958.00
2022-08-22T20:55:46.554Z,91960.47
2022-08-22T20:58:13.864Z,91967.13
2022-08-22T21:00:41.197Z,91968.44
2022-08-22T21:03:08.520Z,91969.16
2022-08-22T21:05:35.809Z,91966.06
2022-08-22T21:08:03.085Z,91970.44
2022-08-22T21:10:30.364Z,91970.72
2022-08-22T21:12:57.639Z,91971.25
2022-08-22T21:15:24.934Z,91969.63
2022-08-22T21:17:52.220Z,91967.31
2022-08-22T21:20:19.486Z,91969.69
2022-08-22T21:22:46.779Z,91971.75
2022-08-22T21:25:14.077Z,91977.91
2022-08-22T21:27:41.358Z,91974.19
2022-08-22T21:30:08.773Z,91974.88
2022-08-22T21:32:36.076Z,91971.41
2022-08-22T21:35:03.379Z,91972.97
2022-08-22T21:37:32.783Z,91974.34
2022-08-22T21:40:00.159Z,91973.34
2022-08-22T21:42:27.508Z,91966.75
2022-08-22T21:44:54.819Z,91966.78
2022-08-22T21:47:30.273Z,91969.16
2022-08-22T21:49:58.640Z,91964.47
2022-08-22T21:52:25.899Z,91961.00
2022-08-22T21:54:53.159Z,91962.56
2022-08-22T21:57:20.440Z,91968.72
2022-08-22T21:59:51.895Z,91964.72
2022-08-22T22:02:27.494Z,91974.47
2022-08-22T22:04:54.815Z,91963.28
2022-08-22T22:07:23.452Z,91966.66
2022-08-22T22:09:54.389Z,91969.31
2022-08-22T22:12:22.175Z,91972.44
2022-08-22T22:14:49.475Z,91974.44
2022-08-22T22:17:16.759Z,91962.81
2022-08-22T22:19:44.038Z,91969.97
2022-08-22T22:22:11.334Z,91966.56
2022-08-22T22:24:38.601Z,91967.09
2022-08-22T22:27:05.880Z,91968.91
2022-08-22T22:29:33.154Z,91978.16
2022-08-22T22:32:00.448Z,91979.00
2022-08-22T22:34:27.715Z,91978.78
2022-08-22T22:36:54.977Z,91974.53
2022-08-22T22:39:22.259Z,91982.81
2022-08-22T22:41:49.694Z,91987.22
2022-08-22T22:44:16.960Z,91987.47
2022-08-22T22:46:48.907Z,91981.44
2022-08-22T22:49:16.187Z,91994.75
2022-08-22T22:51:43.497Z,91995.84
2022-08-22T22:54:11.278Z,91994.84
2022-08-22T22:56:38.576Z,91998.19
2022-08-22T22:59:13.614Z,91998.72
2022-08-22T23:01:41.951Z,92004.06
2022-08-22T23:04:10.795Z,92009.50
2022-08-22T23:06:38.090Z,92010.19
2022-08-22T23:09:05.373Z,92002.53
2022-08-22T23:11:32.757Z,92001.25
2022-08-22T23:14:00.028Z,92004.47
2022-08-22T23:16:27.307Z,92005.25
2022-08-22T23:18:54.590Z,92008.66
2022-08-22T23:21:21.874Z,92004.47
2022-08-22T23:23:49.235Z,92010.09
2022-08-22T23:26:16.496Z,92007.13
2022-08-22T23:28:43.765Z,92004.03
2022-08-22T23:31:11.052Z,92007.94
2022-08-22T23:33:38.317Z,92008.03
2022-08-22T23:36:05.594Z,92005.03
2022-08-22T23:38:32.975Z,92003.88
2022-08-22T23:41:00.250Z,92011.44
2022-08-22T23:43:27.514Z,92013.53
2022-08-22T23:45:54.812Z,92008.19
2022-08-22T23:48:22.122Z,92011.44
2022-08-22T23:50:49.401Z,92010.88
2022-08-22T23:53:16.663Z,92009.97
2022-08-22T23:55:43.943Z,92004.25
2022-08-22T23:58:11.206Z,92004.53
